sensor_id;sensor_type;location;lat;lon;timestamp;P1;durP1;ratioP1;P2;durP2;ratioP2
70320;SDS011;61127;55.826;37.046;2023-02-13T00:00:35;5.95;;;1.30;;
70320;SDS011;61127;55.826;37.046;2023-02-13T00:03:01;4.67;;;1.30;;
70320;SDS011;61127;55.826;37.046;2023-02-13T00:05:27;4.30;;;1.58;;
70320;SDS011;61127;55.826;37.046;2023-02-13T00:07:52;4.00;;;1.20;;
70320;SDS011;61127;55.826;37.046;2023-02-13T00:10:18;5.90;;;1.67;;
70320;SDS011;61127;55.826;37.046;2023-02-13T00:12:44;4.00;;;1.30;;
70320;SDS011;61127;55.826;37.046;2023-02-13T00:15:11;2.92;;;1.17;;
70320;SDS011;61127;55.826;37.046;2023-02-13T00:17:37;6.70;;;1.37;;
70320;SDS011;61127;55.826;37.046;2023-02-13T00:20:03;3.50;;;1.02;;
70320;SDS011;61127;55.826;37.046;2023-02-13T00:22:29;3.90;;;1.20;;
70320;SDS011;61127;55.826;37.046;2023-02-13T00:24:55;4.15;;;1.40;;
70320;SDS011;61127;55.826;37.046;2023-02-13T00:27:21;6.85;;;1.10;;
70320;SDS011;61127;55.826;37.046;2023-02-13T00:29:46;3.57;;;1.40;;
70320;SDS011;61127;55.826;37.046;2023-02-13T00:32:13;3.17;;;1.20;;
70320;SDS011;61127;55.826;37.046;2023-02-13T00:34:39;8.32;;;1.60;;
70320;SDS011;61127;55.826;37.046;2023-02-13T00:37:05;4.30;;;1.20;;
70320;SDS011;61127;55.826;37.046;2023-02-13T00:39:31;2.43;;;1.10;;
70320;SDS011;61127;55.826;37.046;2023-02-13T00:41:56;4.43;;;1.27;;
70320;SDS011;61127;55.826;37.046;2023-02-13T00:44:24;4.63;;;1.37;;
70320;SDS011;61127;55.826;37.046;2023-02-13T00:46:49;4.43;;;1.60;;
70320;SDS011;61127;55.826;37.046;2023-02-13T00:49:15;5.47;;;1.35;;
70320;SDS011;61127;55.826;37.046;2023-02-13T00:51:41;9.00;;;1.20;;
70320;SDS011;61127;55.826;37.046;2023-02-13T00:54:07;5.40;;;1.47;;
70320;SDS011;61127;55.826;37.046;2023-02-13T00:56:32;5.95;;;1.83;;
70320;SDS011;61127;55.826;37.046;2023-02-13T00:58:58;4.97;;;1.40;;
70320;SDS011;61127;55.826;37.046;2023-02-13T01:01:24;4.57;;;1.50;;
70320;SDS011;61127;55.826;37.046;2023-02-13T01:03:49;5.70;;;1.97;;
70320;SDS011;61127;55.826;37.046;2023-02-13T01:06:17;7.45;;;1.92;;
70320;SDS011;61127;55.826;37.046;2023-02-13T01:08:42;5.07;;;1.93;;
70320;SDS011;61127;55.826;37.046;2023-02-13T01:11:08;4.32;;;1.65;;
70320;SDS011;61127;55.826;37.046;2023-02-13T01:13:34;6.93;;;1.85;;
70320;SDS011;61127;55.826;37.046;2023-02-13T01:16:01;6.67;;;1.90;;
70320;SDS011;61127;55.826;37.046;2023-02-13T01:18:27;4.57;;;1.48;;
70320;SDS011;61127;55.826;37.046;2023-02-13T01:23:21;4.47;;;1.58;;
70320;SDS011;61127;55.826;37.046;2023-02-13T01:25:49;3.55;;;1.38;;
70320;SDS011;61127;55.826;37.046;2023-02-13T01:28:17;4.18;;;1.30;;
70320;SDS011;61127;55.826;37.046;2023-02-13T01:30:43;4.20;;;1.17;;
70320;SDS011;61127;55.826;37.046;2023-02-13T01:33:11;3.50;;;1.13;;
70320;SDS011;61127;55.826;37.046;2023-02-13T01:35:38;5.17;;;1.60;;
70320;SDS011;61127;55.826;37.046;2023-02-13T01:38:04;6.43;;;1.30;;
70320;SDS011;61127;55.826;37.046;2023-02-13T01:40:30;4.80;;;1.08;;
70320;SDS011;61127;55.826;37.046;2023-02-13T01:42:56;5.28;;;1.42;;
70320;SDS011;61127;55.826;37.046;2023-02-13T01:45:27;3.77;;;1.00;;
70320;SDS011;61127;55.826;37.046;2023-02-13T01:48:01;4.00;;;1.15;;
70320;SDS011;61127;55.826;37.046;2023-02-13T01:50:32;4.70;;;1.42;;
70320;SDS011;61127;55.826;37.046;2023-02-13T01:53:00;6.93;;;1.65;;
70320;SDS011;61127;55.826;37.046;2023-02-13T01:55:29;4.88;;;1.20;;
70320;SDS011;61127;55.826;37.046;2023-02-13T01:57:57;3.70;;;1.17;;
70320;SDS011;61127;55.826;37.046;2023-02-13T02:00:25;3.08;;;1.25;;
70320;SDS011;61127;55.826;37.046;2023-02-13T02:02:56;6.80;;;1.25;;
70320;SDS011;61127;55.826;37.046;2023-02-13T02:05:29;4.00;;;1.23;;
70320;SDS011;61127;55.826;37.046;2023-02-13T02:07:57;4.30;;;1.35;;
70320;SDS011;61127;55.826;37.046;2023-02-13T02:10:24;7.28;;;1.30;;
70320;SDS011;61127;55.826;37.046;2023-02-13T02:15:19;4.80;;;1.23;;
70320;SDS011;61127;55.826;37.046;2023-02-13T02:17:45;6.35;;;1.17;;
70320;SDS011;61127;55.826;37.046;2023-02-13T02:44:17;5.72;;;1.00;;
70320;SDS011;61127;55.826;37.046;2023-02-13T02:46:57;4.65;;;1.20;;
70320;SDS011;61127;55.826;37.046;2023-02-13T02:49:46;2.00;;;1.03;;
70320;SDS011;61127;55.826;37.046;2023-02-13T02:52:29;5.53;;;1.35;;
70320;SDS011;61127;55.826;37.046;2023-02-13T02:57:50;3.40;;;1.10;;
70320;SDS011;61127;55.826;37.046;2023-02-13T03:00:36;5.82;;;1.60;;
70320;SDS011;61127;55.826;37.046;2023-02-13T03:03:40;3.53;;;1.07;;
70320;SDS011;61127;55.826;37.046;2023-02-13T03:06:26;3.47;;;0.88;;
70320;SDS011;61127;55.826;37.046;2023-02-13T03:08:58;4.72;;;1.33;;
70320;SDS011;61127;55.826;37.046;2023-02-13T03:11:44;2.85;;;1.00;;
70320;SDS011;61127;55.826;37.046;2023-02-13T03:14:35;4.70;;;1.13;;
70320;SDS011;61127;55.826;37.046;2023-02-13T03:17:01;2.23;;;0.80;;
70320;SDS011;61127;55.826;37.046;2023-02-13T03:25:28;4.05;;;1.25;;
70320;SDS011;61127;55.826;37.046;2023-02-13T03:31:20;2.40;;;0.83;;
70320;SDS011;61127;55.826;37.046;2023-02-13T03:41:41;4.20;;;1.20;;
70320;SDS011;61127;55.826;37.046;2023-02-13T03:44:15;4.35;;;1.33;;
70320;SDS011;61127;55.826;37.046;2023-02-13T03:46:43;3.40;;;1.00;;
70320;SDS011;61127;55.826;37.046;2023-02-13T03:49:15;3.30;;;1.20;;
70320;SDS011;61127;55.826;37.046;2023-02-13T03:52:08;4.82;;;1.02;;
70320;SDS011;61127;55.826;37.046;2023-02-13T03:54:45;5.00;;;1.40;;
70320;SDS011;61127;55.826;37.046;2023-02-13T03:57:31;5.38;;;1.00;;
70320;SDS011;61127;55.826;37.046;2023-02-13T04:00:19;4.88;;;1.17;;
70320;SDS011;61127;55.826;37.046;2023-02-13T04:03:19;2.07;;;1.03;;
70320;SDS011;61127;55.826;37.046;2023-02-13T04:05:39;3.70;;;1.30;;
70320;SDS011;61127;55.826;37.046;2023-02-13T04:08:06;3.65;;;1.23;;
70320;SDS011;61127;55.826;37.046;2023-02-13T04:10:32;2.97;;;1.10;;
70320;SDS011;61127;55.826;37.046;2023-02-13T04:13:04;3.38;;;1.23;;
70320;SDS011;61127;55.826;37.046;2023-02-13T04:15:38;4.55;;;1.25;;
70320;SDS011;61127;55.826;37.046;2023-02-13T04:18:10;4.50;;;1.50;;
70320;SDS011;61127;55.826;37.046;2023-02-13T04:20:38;3.17;;;1.30;;
70320;SDS011;61127;55.826;37.046;2023-02-13T04:23:05;3.00;;;1.10;;
70320;SDS011;61127;55.826;37.046;2023-02-13T04:25:31;5.80;;;1.55;;
70320;SDS011;61127;55.826;37.046;2023-02-13T04:27:57;3.92;;;1.30;;
70320;SDS011;61127;55.826;37.046;2023-02-13T04:30:23;8.27;;;1.50;;
70320;SDS011;61127;55.826;37.046;2023-02-13T04:32:48;3.13;;;1.30;;
70320;SDS011;61127;55.826;37.046;2023-02-13T04:35:17;4.57;;;1.03;;
70320;SDS011;61127;55.826;37.046;2023-02-13T04:37:42;5.03;;;1.30;;
70320;SDS011;61127;55.826;37.046;2023-02-13T04:40:09;5.82;;;1.33;;
70320;SDS011;61127;55.826;37.046;2023-02-13T04:42:35;3.53;;;1.20;;
70320;SDS011;61127;55.826;37.046;2023-02-13T04:45:01;3.35;;;1.20;;
70320;SDS011;61127;55.826;37.046;2023-02-13T04:47:29;4.32;;;1.40;;
70320;SDS011;61127;55.826;37.046;2023-02-13T04:49:54;3.60;;;1.10;;
70320;SDS011;61127;55.826;37.046;2023-02-13T04:52:20;2.97;;;1.20;;
70320;SDS011;61127;55.826;37.046;2023-02-13T04:54:45;2.47;;;1.27;;
70320;SDS011;61127;55.826;37.046;2023-02-13T04:57:11;3.03;;;1.13;;
70320;SDS011;61127;55.826;37.046;2023-02-13T04:59:40;3.53;;;0.90;;
70320;SDS011;61127;55.826;37.046;2023-02-13T05:02:05;3.13;;;1.20;;
70320;SDS011;61127;55.826;37.046;2023-02-13T05:04:32;3.43;;;0.93;;
70320;SDS011;61127;55.826;37.046;2023-02-13T05:06:58;6.97;;;1.30;;
70320;SDS011;61127;55.826;37.046;2023-02-13T05:09:24;5.53;;;1.45;;
70320;SDS011;61127;55.826;37.046;2023-02-13T05:11:53;4.07;;;1.23;;
70320;SDS011;61127;55.826;37.046;2023-02-13T05:14:19;3.88;;;1.42;;
70320;SDS011;61127;55.826;37.046;2023-02-13T05:16:45;6.82;;;1.67;;
70320;SDS011;61127;55.826;37.046;2023-02-13T05:19:10;5.20;;;1.33;;
70320;SDS011;61127;55.826;37.046;2023-02-13T05:21:36;4.00;;;1.40;;
70320;SDS011;61127;55.826;37.046;2023-02-13T05:24:21;4.00;;;1.40;;
70320;SDS011;61127;55.826;37.046;2023-02-13T05:26:47;5.82;;;1.10;;
70320;SDS011;61127;55.826;37.046;2023-02-13T05:29:12;6.07;;;1.63;;
70320;SDS011;61127;55.826;37.046;2023-02-13T05:31:47;3.93;;;1.30;;
70320;SDS011;61127;55.826;37.046;2023-02-13T05:34:13;4.25;;;1.35;;
70320;SDS011;61127;55.826;37.046;2023-02-13T05:36:39;5.13;;;1.30;;
70320;SDS011;61127;55.826;37.046;2023-02-13T05:39:05;3.80;;;1.10;;
70320;SDS011;61127;55.826;37.046;2023-02-13T05:41:31;3.40;;;1.10;;
70320;SDS011;61127;55.826;37.046;2023-02-13T05:43:57;4.13;;;1.10;;
70320;SDS011;61127;55.826;37.046;2023-02-13T05:46:22;4.30;;;1.20;;
70320;SDS011;61127;55.826;37.046;2023-02-13T05:48:48;3.23;;;1.20;;
70320;SDS011;61127;55.826;37.046;2023-02-13T05:51:13;3.83;;;1.15;;
70320;SDS011;61127;55.826;37.046;2023-02-13T05:53:39;3.60;;;1.20;;
70320;SDS011;61127;55.826;37.046;2023-02-13T05:56:06;4.78;;;1.05;;
70320;SDS011;61127;55.826;37.046;2023-02-13T05:58:32;3.80;;;1.02;;
70320;SDS011;61127;55.826;37.046;2023-02-13T06:00:58;5.00;;;1.40;;
70320;SDS011;61127;55.826;37.046;2023-02-13T06:03:24;4.70;;;1.20;;
70320;SDS011;61127;55.826;37.046;2023-02-13T06:05:52;5.68;;;1.30;;
70320;SDS011;61127;55.826;37.046;2023-02-13T06:08:18;3.83;;;1.27;;
70320;SDS011;61127;55.826;37.046;2023-02-13T06:10:45;3.13;;;1.25;;
70320;SDS011;61127;55.826;37.046;2023-02-13T06:13:10;3.38;;;1.15;;
70320;SDS011;61127;55.826;37.046;2023-02-13T06:15:37;4.27;;;1.13;;
70320;SDS011;61127;55.826;37.046;2023-02-13T06:18:03;3.10;;;1.17;;
70320;SDS011;61127;55.826;37.046;2023-02-13T06:20:29;4.10;;;1.30;;
70320;SDS011;61127;55.826;37.046;2023-02-13T06:22:54;7.00;;;1.30;;
70320;SDS011;61127;55.826;37.046;2023-02-13T06:25:24;4.57;;;1.35;;
70320;SDS011;61127;55.826;37.046;2023-02-13T06:27:50;8.75;;;1.70;;
70320;SDS011;61127;55.826;37.046;2023-02-13T06:30:16;5.20;;;1.40;;
70320;SDS011;61127;55.826;37.046;2023-02-13T06:32:42;3.80;;;0.93;;
70320;SDS011;61127;55.826;37.046;2023-02-13T06:35:08;3.90;;;1.45;;
70320;SDS011;61127;55.826;37.046;2023-02-13T06:37:38;7.75;;;1.33;;
70320;SDS011;61127;55.826;37.046;2023-02-13T06:40:11;4.57;;;1.20;;
70320;SDS011;61127;55.826;37.046;2023-02-13T06:42:37;4.97;;;1.43;;
70320;SDS011;61127;55.826;37.046;2023-02-13T06:45:04;3.72;;;1.10;;
70320;SDS011;61127;55.826;37.046;2023-02-13T06:47:30;3.97;;;1.50;;
70320;SDS011;61127;55.826;37.046;2023-02-13T06:49:56;4.33;;;1.57;;
70320;SDS011;61127;55.826;37.046;2023-02-13T06:52:22;4.80;;;1.40;;
70320;SDS011;61127;55.826;37.046;2023-02-13T06:54:49;6.93;;;1.40;;
70320;SDS011;61127;55.826;37.046;2023-02-13T06:57:15;5.25;;;1.20;;
70320;SDS011;61127;55.826;37.046;2023-02-13T06:59:41;6.10;;;1.80;;
70320;SDS011;61127;55.826;37.046;2023-02-13T07:02:08;4.83;;;1.20;;
70320;SDS011;61127;55.826;37.046;2023-02-13T07:04:36;3.17;;;1.25;;
70320;SDS011;61127;55.826;37.046;2023-02-13T07:07:05;4.53;;;1.38;;
70320;SDS011;61127;55.826;37.046;2023-02-13T07:09:31;3.85;;;1.42;;
70320;SDS011;61127;55.826;37.046;2023-02-13T07:12:03;3.60;;;1.07;;
70320;SDS011;61127;55.826;37.046;2023-02-13T07:14:31;3.80;;;1.10;;
70320;SDS011;61127;55.826;37.046;2023-02-13T07:16:57;5.43;;;1.23;;
70320;SDS011;61127;55.826;37.046;2023-02-13T07:19:22;3.13;;;1.27;;
70320;SDS011;61127;55.826;37.046;2023-02-13T07:21:48;4.68;;;1.35;;
70320;SDS011;61127;55.826;37.046;2023-02-13T07:24:13;4.80;;;1.20;;
70320;SDS011;61127;55.826;37.046;2023-02-13T07:26:39;6.05;;;1.50;;
70320;SDS011;61127;55.826;37.046;2023-02-13T07:29:05;5.43;;;1.40;;
70320;SDS011;61127;55.826;37.046;2023-02-13T07:31:32;5.37;;;1.60;;
70320;SDS011;61127;55.826;37.046;2023-02-13T07:33:57;6.90;;;1.40;;
70320;SDS011;61127;55.826;37.046;2023-02-13T07:36:27;4.32;;;1.30;;
70320;SDS011;61127;55.826;37.046;2023-02-13T07:38:53;6.68;;;1.50;;
70320;SDS011;61127;55.826;37.046;2023-02-13T07:41:19;5.10;;;1.73;;
70320;SDS011;61127;55.826;37.046;2023-02-13T07:43:44;6.43;;;1.50;;
70320;SDS011;61127;55.826;37.046;2023-02-13T07:46:11;5.70;;;1.52;;
70320;SDS011;61127;55.826;37.046;2023-02-13T07:48:37;5.78;;;1.50;;
70320;SDS011;61127;55.826;37.046;2023-02-13T07:51:03;6.13;;;1.53;;
70320;SDS011;61127;55.826;37.046;2023-02-13T07:53:29;4.45;;;1.58;;
70320;SDS011;61127;55.826;37.046;2023-02-13T07:55:55;5.30;;;1.63;;
70320;SDS011;61127;55.826;37.046;2023-02-13T07:58:20;3.35;;;1.27;;
70320;SDS011;61127;55.826;37.046;2023-02-13T08:00:46;7.87;;;1.33;;
70320;SDS011;61127;55.826;37.046;2023-02-13T08:03:12;4.68;;;1.30;;
70320;SDS011;61127;55.826;37.046;2023-02-13T08:05:39;5.15;;;1.45;;
70320;SDS011;61127;55.826;37.046;2023-02-13T08:08:05;5.97;;;1.80;;
70320;SDS011;61127;55.826;37.046;2023-02-13T08:10:31;6.03;;;1.37;;
70320;SDS011;61127;55.826;37.046;2023-02-13T08:13:15;5.45;;;1.30;;
70320;SDS011;61127;55.826;37.046;2023-02-13T08:15:43;5.43;;;1.38;;
70320;SDS011;61127;55.826;37.046;2023-02-13T08:18:09;3.63;;;1.50;;
70320;SDS011;61127;55.826;37.046;2023-02-13T08:20:35;3.67;;;1.25;;
70320;SDS011;61127;55.826;37.046;2023-02-13T08:23:01;5.93;;;1.48;;
70320;SDS011;61127;55.826;37.046;2023-02-13T08:25:28;4.32;;;1.13;;
70320;SDS011;61127;55.826;37.046;2023-02-13T08:27:58;8.37;;;1.63;;
70320;SDS011;61127;55.826;37.046;2023-02-13T08:30:27;5.50;;;1.48;;
70320;SDS011;61127;55.826;37.046;2023-02-13T08:32:53;5.65;;;1.27;;
70320;SDS011;61127;55.826;37.046;2023-02-13T08:35:20;6.75;;;1.25;;
70320;SDS011;61127;55.826;37.046;2023-02-13T08:37:47;4.53;;;1.40;;
70320;SDS011;61127;55.826;37.046;2023-02-13T08:40:12;8.93;;;1.40;;
70320;SDS011;61127;55.826;37.046;2023-02-13T08:42:38;7.28;;;1.75;;
70320;SDS011;61127;55.826;37.046;2023-02-13T08:45:04;5.37;;;1.30;;
70320;SDS011;61127;55.826;37.046;2023-02-13T08:47:31;6.88;;;1.40;;
70320;SDS011;61127;55.826;37.046;2023-02-13T08:49:56;5.00;;;1.30;;
70320;SDS011;61127;55.826;37.046;2023-02-13T08:52:22;4.63;;;1.30;;
70320;SDS011;61127;55.826;37.046;2023-02-13T08:57:16;5.47;;;1.20;;
70320;SDS011;61127;55.826;37.046;2023-02-13T08:59:42;5.47;;;1.27;;
70320;SDS011;61127;55.826;37.046;2023-02-13T09:02:11;5.87;;;1.43;;
70320;SDS011;61127;55.826;37.046;2023-02-13T09:04:38;3.60;;;1.00;;
70320;SDS011;61127;55.826;37.046;2023-02-13T09:07:03;3.90;;;1.50;;
70320;SDS011;61127;55.826;37.046;2023-02-13T09:09:29;3.33;;;1.23;;
70320;SDS011;61127;55.826;37.046;2023-02-13T09:11:54;2.42;;;1.20;;
70320;SDS011;61127;55.826;37.046;2023-02-13T09:14:23;4.07;;;1.10;;
70320;SDS011;61127;55.826;37.046;2023-02-13T09:16:49;5.00;;;1.13;;
70320;SDS011;61127;55.826;37.046;2023-02-13T09:19:15;2.70;;;1.20;;
70320;SDS011;61127;55.826;37.046;2023-02-13T09:21:40;4.73;;;1.43;;
70320;SDS011;61127;55.826;37.046;2023-02-13T09:24:07;6.70;;;1.33;;
70320;SDS011;61127;55.826;37.046;2023-02-13T09:26:33;5.00;;;1.20;;
70320;SDS011;61127;55.826;37.046;2023-02-13T09:28:58;3.50;;;1.27;;
70320;SDS011;61127;55.826;37.046;2023-02-13T09:31:24;4.23;;;1.23;;
70320;SDS011;61127;55.826;37.046;2023-02-13T09:33:50;4.30;;;1.30;;
70320;SDS011;61127;55.826;37.046;2023-02-13T09:36:19;2.23;;;1.00;;
70320;SDS011;61127;55.826;37.046;2023-02-13T09:38:45;3.55;;;1.00;;
70320;SDS011;61127;55.826;37.046;2023-02-13T09:46:16;5.78;;;1.10;;
70320;SDS011;61127;55.826;37.046;2023-02-13T09:48:43;3.50;;;1.27;;
70320;SDS011;61127;55.826;37.046;2023-02-13T09:51:15;4.25;;;1.20;;
70320;SDS011;61127;55.826;37.046;2023-02-13T09:53:41;5.30;;;1.30;;
70320;SDS011;61127;55.826;37.046;2023-02-13T09:56:15;9.73;;;1.90;;
70320;SDS011;61127;55.826;37.046;2023-02-13T09:58:46;4.32;;;1.30;;
70320;SDS011;61127;55.826;37.046;2023-02-13T10:01:25;4.67;;;1.30;;
70320;SDS011;61127;55.826;37.046;2023-02-13T10:06:31;4.18;;;1.40;;
70320;SDS011;61127;55.826;37.046;2023-02-13T10:14:04;4.95;;;1.08;;
70320;SDS011;61127;55.826;37.046;2023-02-13T10:16:40;4.07;;;1.20;;
70320;SDS011;61127;55.826;37.046;2023-02-13T10:19:31;2.35;;;1.10;;
70320;SDS011;61127;55.826;37.046;2023-02-13T10:21:55;3.20;;;1.20;;
70320;SDS011;61127;55.826;37.046;2023-02-13T10:26:54;4.78;;;1.42;;
70320;SDS011;61127;55.826;37.046;2023-02-13T10:32:26;4.63;;;1.60;;
70320;SDS011;61127;55.826;37.046;2023-02-13T10:34:54;4.90;;;1.27;;
70320;SDS011;61127;55.826;37.046;2023-02-13T10:37:21;7.80;;;1.65;;
70320;SDS011;61127;55.826;37.046;2023-02-13T10:39:48;4.47;;;1.20;;
70320;SDS011;61127;55.826;37.046;2023-02-13T10:52:58;4.38;;;0.90;;
70320;SDS011;61127;55.826;37.046;2023-02-13T10:58:06;6.60;;;1.30;;
70320;SDS011;61127;55.826;37.046;2023-02-13T11:03:21;6.17;;;1.40;;
70320;SDS011;61127;55.826;37.046;2023-02-13T11:05:47;4.47;;;1.10;;
70320;SDS011;61127;55.826;37.046;2023-02-13T11:08:17;2.45;;;1.20;;
70320;SDS011;61127;55.826;37.046;2023-02-13T11:10:44;4.78;;;1.05;;
70320;SDS011;61127;55.826;37.046;2023-02-13T11:13:15;3.42;;;1.10;;
70320;SDS011;61127;55.826;37.046;2023-02-13T11:15:41;1.73;;;0.97;;
70320;SDS011;61127;55.826;37.046;2023-02-13T11:18:25;3.50;;;1.00;;
70320;SDS011;61127;55.826;37.046;2023-02-13T11:23:32;4.43;;;1.17;;
70320;SDS011;61127;55.826;37.046;2023-02-13T11:26:00;2.30;;;0.90;;
70320;SDS011;61127;55.826;37.046;2023-02-13T11:28:27;3.92;;;1.23;;
70320;SDS011;61127;55.826;37.046;2023-02-13T11:30:55;3.75;;;1.00;;
70320;SDS011;61127;55.826;37.046;2023-02-13T11:33:32;1.90;;;1.15;;
70320;SDS011;61127;55.826;37.046;2023-02-13T11:36:06;4.50;;;1.23;;
70320;SDS011;61127;55.826;37.046;2023-02-13T11:38:32;2.63;;;1.10;;
70320;SDS011;61127;55.826;37.046;2023-02-13T11:41:05;3.30;;;1.30;;
70320;SDS011;61127;55.826;37.046;2023-02-13T11:43:35;3.92;;;1.25;;
70320;SDS011;61127;55.826;37.046;2023-02-13T11:46:19;3.38;;;1.25;;
70320;SDS011;61127;55.826;37.046;2023-02-13T11:49:04;4.60;;;1.10;;
70320;SDS011;61127;55.826;37.046;2023-02-13T11:51:34;7.37;;;1.20;;
70320;SDS011;61127;55.826;37.046;2023-02-13T11:54:00;6.45;;;1.13;;
70320;SDS011;61127;55.826;37.046;2023-02-13T11:56:26;3.38;;;1.20;;
70320;SDS011;61127;55.826;37.046;2023-02-13T11:58:59;2.95;;;1.23;;
70320;SDS011;61127;55.826;37.046;2023-02-13T12:01:25;2.33;;;0.98;;
70320;SDS011;61127;55.826;37.046;2023-02-13T12:04:34;8.57;;;2.00;;
70320;SDS011;61127;55.826;37.046;2023-02-13T12:06:56;3.10;;;1.10;;
70320;SDS011;61127;55.826;37.046;2023-02-13T12:09:22;2.53;;;1.00;;
70320;SDS011;61127;55.826;37.046;2023-02-13T12:11:48;4.60;;;1.02;;
70320;SDS011;61127;55.826;37.046;2023-02-13T12:14:26;3.92;;;0.82;;
70320;SDS011;61127;55.826;37.046;2023-02-13T12:19:28;5.80;;;0.93;;
70320;SDS011;61127;55.826;37.046;2023-02-13T12:25:02;5.55;;;0.90;;
70320;SDS011;61127;55.826;37.046;2023-02-13T12:27:43;2.00;;;0.93;;
70320;SDS011;61127;55.826;37.046;2023-02-13T12:30:20;1.53;;;0.83;;
70320;SDS011;61127;55.826;37.046;2023-02-13T12:46:11;3.35;;;0.90;;
70320;SDS011;61127;55.826;37.046;2023-02-13T12:54:09;2.28;;;0.70;;
70320;SDS011;61127;55.826;37.046;2023-02-13T13:04:30;4.68;;;0.82;;
70320;SDS011;61127;55.826;37.046;2023-02-13T13:14:55;2.47;;;0.93;;
70320;SDS011;61127;55.826;37.046;2023-02-13T13:25:46;2.78;;;0.80;;
70320;SDS011;61127;55.826;37.046;2023-02-13T13:28:15;5.70;;;1.10;;
70320;SDS011;61127;55.826;37.046;2023-02-13T13:30:41;3.97;;;1.20;;
70320;SDS011;61127;55.826;37.046;2023-02-13T13:33:42;3.40;;;1.02;;
70320;SDS011;61127;55.826;37.046;2023-02-13T13:36:06;7.28;;;1.35;;
70320;SDS011;61127;55.826;37.046;2023-02-13T13:41:30;4.50;;;1.73;;
70320;SDS011;61127;55.826;37.046;2023-02-13T13:44:00;2.10;;;1.20;;
70320;SDS011;61127;55.826;37.046;2023-02-13T13:49:05;2.72;;;1.17;;
70320;SDS011;61127;55.826;37.046;2023-02-13T13:51:34;4.20;;;1.23;;
70320;SDS011;61127;55.826;37.046;2023-02-13T13:59:17;4.70;;;1.40;;
70320;SDS011;61127;55.826;37.046;2023-02-13T14:01:43;2.97;;;1.20;;
70320;SDS011;61127;55.826;37.046;2023-02-13T14:11:51;6.22;;;1.92;;
70320;SDS011;61127;55.826;37.046;2023-02-13T14:14:53;4.00;;;1.70;;
70320;SDS011;61127;55.826;37.046;2023-02-13T14:17:12;6.57;;;1.65;;
70320;SDS011;61127;55.826;37.046;2023-02-13T14:19:39;4.72;;;1.80;;
70320;SDS011;61127;55.826;37.046;2023-02-13T14:24:54;5.45;;;1.90;;
70320;SDS011;61127;55.826;37.046;2023-02-13T14:27:21;5.70;;;1.80;;
70320;SDS011;61127;55.826;37.046;2023-02-13T14:29:47;3.67;;;1.80;;
70320;SDS011;61127;55.826;37.046;2023-02-13T14:32:17;4.65;;;1.85;;
70320;SDS011;61127;55.826;37.046;2023-02-13T14:34:52;5.30;;;2.08;;
70320;SDS011;61127;55.826;37.046;2023-02-13T14:37:46;6.72;;;2.05;;
70320;SDS011;61127;55.826;37.046;2023-02-13T14:42:36;7.38;;;2.28;;
70320;SDS011;61127;55.826;37.046;2023-02-13T14:45:09;7.75;;;2.22;;
70320;SDS011;61127;55.826;37.046;2023-02-13T14:47:39;6.40;;;2.13;;
70320;SDS011;61127;55.826;37.046;2023-02-13T14:50:10;8.43;;;2.40;;
70320;SDS011;61127;55.826;37.046;2023-02-13T14:52:39;6.13;;;2.60;;
70320;SDS011;61127;55.826;37.046;2023-02-13T14:57:53;6.60;;;2.53;;
70320;SDS011;61127;55.826;37.046;2023-02-13T15:00:26;7.75;;;3.00;;
70320;SDS011;61127;55.826;37.046;2023-02-13T15:03:00;7.20;;;2.60;;
70320;SDS011;61127;55.826;37.046;2023-02-13T15:05:33;6.73;;;2.60;;
70320;SDS011;61127;55.826;37.046;2023-02-13T15:08:15;9.10;;;2.92;;
70320;SDS011;61127;55.826;37.046;2023-02-13T15:13:42;8.07;;;3.13;;
70320;SDS011;61127;55.826;37.046;2023-02-13T15:16:06;7.35;;;2.70;;
70320;SDS011;61127;55.826;37.046;2023-02-13T15:18:48;7.27;;;2.63;;
70320;SDS011;61127;55.826;37.046;2023-02-13T15:21:20;6.75;;;2.70;;
70320;SDS011;61127;55.826;37.046;2023-02-13T15:23:50;7.60;;;2.50;;
70320;SDS011;61127;55.826;37.046;2023-02-13T15:26:20;7.82;;;2.92;;
70320;SDS011;61127;55.826;37.046;2023-02-13T15:29:01;7.10;;;2.65;;
70320;SDS011;61127;55.826;37.046;2023-02-13T15:31:30;8.63;;;3.13;;
70320;SDS011;61127;55.826;37.046;2023-02-13T15:33:59;8.20;;;3.20;;
70320;SDS011;61127;55.826;37.046;2023-02-13T15:36:31;5.68;;;2.60;;
70320;SDS011;61127;55.826;37.046;2023-02-13T15:39:06;6.82;;;2.67;;
70320;SDS011;61127;55.826;37.046;2023-02-13T15:41:41;7.03;;;2.80;;
70320;SDS011;61127;55.826;37.046;2023-02-13T15:44:12;7.53;;;3.27;;
70320;SDS011;61127;55.826;37.046;2023-02-13T15:46:40;8.82;;;3.40;;
70320;SDS011;61127;55.826;37.046;2023-02-13T15:49:17;7.30;;;2.83;;
70320;SDS011;61127;55.826;37.046;2023-02-13T15:51:43;10.17;;;3.00;;
70320;SDS011;61127;55.826;37.046;2023-02-13T15:54:21;7.07;;;2.47;;
70320;SDS011;61127;55.826;37.046;2023-02-13T15:56:47;7.85;;;2.88;;
70320;SDS011;61127;55.826;37.046;2023-02-13T15:59:12;9.25;;;3.20;;
70320;SDS011;61127;55.826;37.046;2023-02-13T16:01:39;9.00;;;2.93;;
70320;SDS011;61127;55.826;37.046;2023-02-13T16:04:08;4.90;;;2.17;;
70320;SDS011;61127;55.826;37.046;2023-02-13T16:06:39;7.20;;;2.78;;
70320;SDS011;61127;55.826;37.046;2023-02-13T16:09:04;5.85;;;2.40;;
70320;SDS011;61127;55.826;37.046;2023-02-13T16:11:34;3.83;;;2.30;;
70320;SDS011;61127;55.826;37.046;2023-02-13T16:14:33;5.72;;;2.40;;
70320;SDS011;61127;55.826;37.046;2023-02-13T16:20:28;7.20;;;2.42;;
70320;SDS011;61127;55.826;37.046;2023-02-13T16:22:33;7.85;;;2.40;;
70320;SDS011;61127;55.826;37.046;2023-02-13T16:27:43;7.65;;;2.65;;
70320;SDS011;61127;55.826;37.046;2023-02-13T16:32:50;6.50;;;2.28;;
70320;SDS011;61127;55.826;37.046;2023-02-13T16:35:21;8.80;;;2.60;;
70320;SDS011;61127;55.826;37.046;2023-02-13T16:37:51;8.20;;;2.47;;
70320;SDS011;61127;55.826;37.046;2023-02-13T16:45:48;6.50;;;2.50;;
70320;SDS011;61127;55.826;37.046;2023-02-13T16:48:13;9.23;;;2.80;;
70320;SDS011;61127;55.826;37.046;2023-02-13T16:50:40;7.78;;;2.88;;
70320;SDS011;61127;55.826;37.046;2023-02-13T16:53:06;7.03;;;2.40;;
70320;SDS011;61127;55.826;37.046;2023-02-13T16:55:31;7.90;;;2.63;;
70320;SDS011;61127;55.826;37.046;2023-02-13T16:58:02;7.70;;;2.58;;
70320;SDS011;61127;55.826;37.046;2023-02-13T17:00:28;7.10;;;2.88;;
70320;SDS011;61127;55.826;37.046;2023-02-13T17:02:54;7.10;;;3.03;;
70320;SDS011;61127;55.826;37.046;2023-02-13T17:05:27;7.13;;;2.63;;
70320;SDS011;61127;55.826;37.046;2023-02-13T17:07:53;7.05;;;2.85;;
70320;SDS011;61127;55.826;37.046;2023-02-13T17:12:48;8.43;;;2.88;;
70320;SDS011;61127;55.826;37.046;2023-02-13T17:15:16;8.60;;;2.60;;
70320;SDS011;61127;55.826;37.046;2023-02-13T17:17:42;4.93;;;2.70;;
70320;SDS011;61127;55.826;37.046;2023-02-13T17:20:12;7.47;;;2.30;;
70320;SDS011;61127;55.826;37.046;2023-02-13T17:22:39;6.80;;;2.80;;
70320;SDS011;61127;55.826;37.046;2023-02-13T17:25:10;9.07;;;3.00;;
70320;SDS011;61127;55.826;37.046;2023-02-13T17:27:39;7.55;;;2.63;;
70320;SDS011;61127;55.826;37.046;2023-02-13T17:30:05;9.38;;;2.47;;
70320;SDS011;61127;55.826;37.046;2023-02-13T17:32:32;8.82;;;2.55;;
70320;SDS011;61127;55.826;37.046;2023-02-13T17:34:58;7.78;;;2.53;;
70320;SDS011;61127;55.826;37.046;2023-02-13T17:37:25;10.53;;;2.73;;
70320;SDS011;61127;55.826;37.046;2023-02-13T17:39:51;10.40;;;2.53;;
70320;SDS011;61127;55.826;37.046;2023-02-13T17:42:27;7.72;;;2.22;;
70320;SDS011;61127;55.826;37.046;2023-02-13T17:44:55;7.93;;;2.40;;
70320;SDS011;61127;55.826;37.046;2023-02-13T17:47:21;6.88;;;2.30;;